createdAt,value
2018-12-24T00:00:46.136Z,39.47
2018-12-24T00:03:27.982Z,44.07
2018-12-24T00:06:17.336Z,47.43
2018-12-24T00:09:06.991Z,45.57
2018-12-24T00:11:56.371Z,41.27
2018-12-24T00:14:45.746Z,41.00
2018-12-24T00:17:35.034Z,44.40
2018-12-24T00:20:24.215Z,46.60
2018-12-24T00:26:28.202Z,40.80
2018-12-24T00:29:08.682Z,50.57
2018-12-24T00:31:58.033Z,46.17
2018-12-24T00:34:39.834Z,42.53
2018-12-24T00:37:29.119Z,46.30
2018-12-24T00:40:11.296Z,46.50
2018-12-24T00:43:00.699Z,43.10
2018-12-24T00:45:40.821Z,48.03
2018-12-24T00:48:30.115Z,40.57
2018-12-24T00:51:11.596Z,43.17
2018-12-24T00:53:53.625Z,44.77
2018-12-24T00:56:42.911Z,42.90
2018-12-24T00:59:32.196Z,40.43
2018-12-24T01:02:21.469Z,51.30
2018-12-24T01:05:10.749Z,53.07
2018-12-24T01:14:21.847Z,50.83
2018-12-24T01:17:11.230Z,42.57
2018-12-24T01:20:00.598Z,42.83
2018-12-24T01:25:50.240Z,41.53
2018-12-24T01:31:40.520Z,87.87
2018-12-24T01:34:29.805Z,95.43
2018-12-24T01:37:19.178Z,87.03
2018-12-24T01:40:08.455Z,133.37
2018-12-24T01:42:57.833Z,144.70
2018-12-24T01:45:47.214Z,134.07
2018-12-24T01:48:29.344Z,104.40
2018-12-24T01:54:05.143Z,99.83
2018-12-24T01:56:54.495Z,143.93
2018-12-24T01:59:34.746Z,156.67
2018-12-24T02:02:24.207Z,119.17
2018-12-24T02:05:04.357Z,118.83
2018-12-24T02:07:53.733Z,85.37
2018-12-24T02:10:35.705Z,82.57
2018-12-24T02:13:25.004Z,73.87
2018-12-24T02:16:14.384Z,101.00
2018-12-24T02:18:56.751Z,98.67
2018-12-24T02:21:46.059Z,101.43
2018-12-24T02:24:28.303Z,123.50
2018-12-24T02:27:17.636Z,94.77
2018-12-24T02:29:59.611Z,94.67
2018-12-24T02:32:49.031Z,89.50
2018-12-24T02:35:30.808Z,84.73
2018-12-24T02:38:20.109Z,117.77
2018-12-24T02:41:00.273Z,78.07
2018-12-24T02:43:49.637Z,67.70
2018-12-24T02:46:32.001Z,92.53
2018-12-24T02:49:21.303Z,138.20
2018-12-24T02:52:10.681Z,92.13
2018-12-24T02:54:52.706Z,100.37
2018-12-24T02:57:42.058Z,93.67
2018-12-24T03:00:24.319Z,81.33
2018-12-24T03:03:13.661Z,111.03
2018-12-24T03:05:55.972Z,131.90
2018-12-24T03:08:45.314Z,118.10
2018-12-24T03:11:27.260Z,91.07
2018-12-24T03:14:16.597Z,82.63
2018-12-24T03:16:58.826Z,89.20
2018-12-24T03:22:48.832Z,89.53
2018-12-24T03:25:38.141Z,104.37
2018-12-24T03:28:27.522Z,117.60
2018-12-24T03:31:16.964Z,118.23
2018-12-24T03:33:58.728Z,101.73
2018-12-24T03:42:46.751Z,76.97
2018-12-24T03:45:36.067Z,90.77
2018-12-24T03:48:17.812Z,87.53
2018-12-24T03:51:07.253Z,88.70
2018-12-24T03:53:49.357Z,77.47
2018-12-24T03:56:38.741Z,76.87
2018-12-24T03:59:22.090Z,63.03
2018-12-24T04:02:11.690Z,68.37
2018-12-24T04:05:01.066Z,71.10
2018-12-24T04:07:50.444Z,80.00
2018-12-24T04:10:39.723Z,86.23
2018-12-24T04:13:29.099Z,77.07
2018-12-24T04:16:18.482Z,72.63
2018-12-24T04:19:07.860Z,62.13
2018-12-24T04:21:57.235Z,73.00
2018-12-24T04:24:46.513Z,72.80
2018-12-24T04:27:41.655Z,72.47
2018-12-24T04:30:19.714Z,75.17
2018-12-24T04:33:09.040Z,68.07
2018-12-24T04:35:58.518Z,78.30
2018-12-24T04:38:47.896Z,72.03
2018-12-24T04:41:28.196Z,75.30
2018-12-24T04:44:10.587Z,71.57
2018-12-24T04:46:59.906Z,71.73
2018-12-24T04:49:49.284Z,73.93
2018-12-24T04:52:31.661Z,63.27
2018-12-24T04:58:21.328Z,72.33
2018-12-24T05:01:10.515Z,90.77
2018-12-24T05:03:52.553Z,85.10
2018-12-24T05:09:33.607Z,72.83
2018-12-24T05:12:22.933Z,96.20
2018-12-24T05:15:12.303Z,69.63
2018-12-24T05:18:01.487Z,76.43
2018-12-24T05:23:37.750Z,87.97
2018-12-24T05:26:27.060Z,80.03
2018-12-24T05:29:16.437Z,89.77
2018-12-24T05:32:05.816Z,104.33
2018-12-24T05:34:55.194Z,79.00
2018-12-24T05:37:44.571Z,96.23
2018-12-24T05:40:33.948Z,90.60
2018-12-24T05:43:16.079Z,95.50
2018-12-24T05:46:05.430Z,93.70
2018-12-24T05:48:45.671Z,88.93
2018-12-24T05:51:35.042Z,93.70
2018-12-24T05:54:24.322Z,89.37
2018-12-24T05:57:13.702Z,97.73
2018-12-24T05:59:57.054Z,94.60
2018-12-24T06:02:57.141Z,93.20
2018-12-24T06:05:46.453Z,110.00
2018-12-24T06:08:35.835Z,91.43
2018-12-24T06:11:25.207Z,91.73
2018-12-24T06:17:29.622Z,92.63
2018-12-24T06:20:18.996Z,91.83
2018-12-24T06:23:08.374Z,87.60
2018-12-24T06:25:50.745Z,95.47
2018-12-24T06:31:32.200Z,87.77
2018-12-24T06:34:21.559Z,89.53
2018-12-24T06:37:10.938Z,85.37
2018-12-24T06:42:58.539Z,87.27
2018-12-24T06:45:47.916Z,89.50
2018-12-24T06:51:37.387Z,121.60
2018-12-24T06:54:26.764Z,88.00
2018-12-24T06:57:08.896Z,88.50
2018-12-24T06:59:58.080Z,91.90
2018-12-24T07:02:27.991Z,122.13
2018-12-24T07:04:57.905Z,103.83
2018-12-24T07:07:27.813Z,115.43
2018-12-24T07:09:57.719Z,95.30
2018-12-24T07:12:27.628Z,86.20
2018-12-24T07:14:57.542Z,103.20
2018-12-24T07:17:27.553Z,102.63
2018-12-24T07:19:57.470Z,132.77
2018-12-24T07:22:27.380Z,115.20
2018-12-24T07:24:57.345Z,99.03
2018-12-24T07:27:27.356Z,112.33
2018-12-24T07:29:57.269Z,124.00
2018-12-24T07:32:27.292Z,153.43
2018-12-24T07:34:57.206Z,107.23
2018-12-24T07:37:27.108Z,96.23
2018-12-24T07:39:57.022Z,98.23
2018-12-24T07:42:26.936Z,96.83
2018-12-24T07:44:56.848Z,92.57
2018-12-24T07:47:26.759Z,86.93
2018-12-24T07:49:56.824Z,122.37
2018-12-24T07:52:26.873Z,106.93
2018-12-24T07:54:56.791Z,121.37
2018-12-24T07:57:26.748Z,103.00
2018-12-24T07:59:56.659Z,114.00
2018-12-24T08:02:26.617Z,92.40
2018-12-24T08:04:56.619Z,97.93
2018-12-24T08:07:26.521Z,105.43
2018-12-24T08:09:56.431Z,97.40
2018-12-24T08:12:26.337Z,75.80
2018-12-24T08:14:56.248Z,97.23
2018-12-24T08:17:26.461Z,110.00
2018-12-24T08:19:56.367Z,126.27
2018-12-24T08:22:26.277Z,81.87
2018-12-24T08:24:56.194Z,100.07
2018-12-24T08:27:26.214Z,100.47
2018-12-24T08:29:56.158Z,96.80
2018-12-24T08:32:26.060Z,91.53
2018-12-24T08:34:55.969Z,101.80
2018-12-24T08:37:25.981Z,89.83
2018-12-24T08:39:55.930Z,112.33
2018-12-24T08:42:26.048Z,87.37
2018-12-24T08:44:55.953Z,72.53
2018-12-24T08:47:25.955Z,83.17
2018-12-24T08:49:55.878Z,52.57
2018-12-24T08:52:25.792Z,51.87
2018-12-24T08:54:55.702Z,47.83
2018-12-24T08:57:25.617Z,50.93
2018-12-24T08:59:55.584Z,60.50
2018-12-24T09:02:25.796Z,59.57
2018-12-24T09:04:55.704Z,51.13
2018-12-24T09:07:25.611Z,44.67
2018-12-24T09:09:55.581Z,42.67
2018-12-24T09:12:25.497Z,45.03
2018-12-24T09:14:55.409Z,40.00
2018-12-24T09:17:25.312Z,40.97
2018-12-24T09:19:55.221Z,40.53
2018-12-24T09:22:25.137Z,39.17
2018-12-24T09:24:55.044Z,39.63
2018-12-24T09:27:25.164Z,46.20
2018-12-24T09:29:55.080Z,40.57
2018-12-24T09:32:25.002Z,37.53
2018-12-24T09:34:54.908Z,33.90
2018-12-24T09:37:24.816Z,33.17
2018-12-24T09:39:54.734Z,34.67
2018-12-24T09:42:24.790Z,32.33
2018-12-24T09:44:59.124Z,34.67
2018-12-24T09:47:27.684Z,37.63
2018-12-24T09:49:57.597Z,38.10
2018-12-24T09:52:27.500Z,39.90
2018-12-24T09:54:57.411Z,32.67
2018-12-24T09:57:27.330Z,31.13
2018-12-24T09:59:57.324Z,34.40
2018-12-24T10:02:31.636Z,28.20
2018-12-24T10:05:01.865Z,31.77
2018-12-24T10:07:33.349Z,33.30
2018-12-24T10:10:03.291Z,27.17
2018-12-24T10:12:33.191Z,29.03
2018-12-24T10:15:08.055Z,29.77
2018-12-24T10:17:34.792Z,26.47
2018-12-24T10:20:05.805Z,24.33
2018-12-24T10:22:35.726Z,28.00
2018-12-24T10:25:05.728Z,23.70
2018-12-24T10:27:35.636Z,22.53
2018-12-24T10:30:06.548Z,25.43
2018-12-24T10:32:36.458Z,20.47
2018-12-24T10:35:06.460Z,23.30
2018-12-24T10:37:36.367Z,23.17
2018-12-24T10:40:10.677Z,24.27
2018-12-24T10:42:40.587Z,22.93
2018-12-24T10:45:16.406Z,21.97
2018-12-24T10:47:42.182Z,23.53
2018-12-24T10:50:12.192Z,19.60
2018-12-24T10:52:42.217Z,19.43
2018-12-24T10:55:12.124Z,18.93
2018-12-24T10:57:42.141Z,19.67
2018-12-24T11:00:12.029Z,15.87
2018-12-24T11:02:41.937Z,15.60
2018-12-24T11:05:11.854Z,15.40
2018-12-24T11:07:41.768Z,17.10
2018-12-24T11:10:12.072Z,16.23
2018-12-24T11:12:41.990Z,16.57
2018-12-24T11:15:12.001Z,18.20
2018-12-24T11:17:41.929Z,15.63
2018-12-24T11:20:12.039Z,16.30
2018-12-24T11:22:41.951Z,17.37
2018-12-24T11:25:11.897Z,16.77
2018-12-24T11:27:41.806Z,17.37
2018-12-24T11:30:11.755Z,15.77
2018-12-24T11:32:41.796Z,15.63
2018-12-24T11:35:11.705Z,15.77
2018-12-24T11:37:41.713Z,14.70
2018-12-24T11:40:11.623Z,14.33
2018-12-24T11:42:41.536Z,14.83
2018-12-24T11:45:11.443Z,14.73
2018-12-24T11:47:41.378Z,13.77
2018-12-24T11:50:11.261Z,14.83
2018-12-24T11:52:41.597Z,12.77
2018-12-24T11:55:11.504Z,13.47
2018-12-24T11:57:41.404Z,13.60
2018-12-24T12:00:11.307Z,15.43
2018-12-24T12:02:41.216Z,12.07
2018-12-24T12:05:11.206Z,13.87
2018-12-24T12:07:41.210Z,12.17
2018-12-24T12:10:11.113Z,12.03
2018-12-24T12:12:41.015Z,10.97
2018-12-24T12:15:12.983Z,11.27
2018-12-24T12:17:42.654Z,12.73
2018-12-24T12:20:12.563Z,14.00
2018-12-24T12:22:42.458Z,12.57
2018-12-24T12:25:12.469Z,16.47
2018-12-24T12:27:42.428Z,12.23
2018-12-24T12:30:12.417Z,11.33
2018-12-24T12:32:42.338Z,13.07
2018-12-24T12:35:12.242Z,12.60
2018-12-24T12:37:42.250Z,12.53
2018-12-24T12:40:12.150Z,12.07
2018-12-24T12:42:42.065Z,11.83
2018-12-24T12:45:11.967Z,12.47
2018-12-24T12:47:41.875Z,14.60
2018-12-24T12:50:11.771Z,10.90
2018-12-24T12:52:41.685Z,15.07
2018-12-24T12:55:11.596Z,12.20
2018-12-24T12:57:41.764Z,12.43
2018-12-24T13:00:11.668Z,26.47
2018-12-24T13:02:41.583Z,23.93
2018-12-24T13:05:11.488Z,43.87
2018-12-24T13:07:41.518Z,18.83
2018-12-24T13:10:11.421Z,39.20
2018-12-24T13:12:41.327Z,28.80
2018-12-24T13:15:11.354Z,22.17
2018-12-24T13:17:41.372Z,19.97
2018-12-24T13:20:11.308Z,15.73
2018-12-24T13:22:41.227Z,17.10
2018-12-24T13:25:11.140Z,17.37
2018-12-24T13:27:41.121Z,15.47
2018-12-24T13:30:11.064Z,11.03
2018-12-24T13:32:41.491Z,15.37
2018-12-24T13:35:11.408Z,15.20
2018-12-24T13:37:42.339Z,11.87
2018-12-24T13:40:12.309Z,11.47
2018-12-24T13:42:42.369Z,9.83
2018-12-24T13:45:12.360Z,17.60
2018-12-24T13:47:42.272Z,13.53
2018-12-24T13:50:12.185Z,11.47
2018-12-24T13:53:42.206Z,7.43
2018-12-24T14:02:34.501Z,7.87
2018-12-24T14:08:30.636Z,7.97
2018-12-24T14:11:19.858Z,7.67
2018-12-24T14:17:16.832Z,11.43
2018-12-24T14:20:26.715Z,7.07
2018-12-24T14:23:15.895Z,4.70
2018-12-24T14:26:05.078Z,5.17
2018-12-24T14:28:54.146Z,5.40
2018-12-24T14:32:02.331Z,3.97
2018-12-24T14:34:44.079Z,6.03
2018-12-24T14:37:33.310Z,6.37
2018-12-24T14:40:22.581Z,4.70
2018-12-24T14:43:11.761Z,9.63
2018-12-24T14:46:00.944Z,9.50
2018-12-24T14:48:50.223Z,18.27
2018-12-24T14:51:39.405Z,13.20
2018-12-24T14:54:28.583Z,14.50
2018-12-24T14:57:18.061Z,16.63
2018-12-24T15:00:27.985Z,13.93
2018-12-24T15:03:17.162Z,11.03
2018-12-24T15:06:06.481Z,7.40
2018-12-24T15:08:48.589Z,7.50
2018-12-24T15:11:37.919Z,7.47
2018-12-24T15:14:18.374Z,11.00
2018-12-24T15:17:07.631Z,9.97
2018-12-24T15:19:57.024Z,9.23
2018-12-24T15:22:38.638Z,6.90
2018-12-24T15:28:35.302Z,7.10
2018-12-24T15:31:35.224Z,7.03
2018-12-24T15:37:38.941Z,6.83
2018-12-24T15:40:21.184Z,7.23
2018-12-24T15:43:10.366Z,5.93
2018-12-24T15:46:18.547Z,6.93
2018-12-24T15:49:07.611Z,8.00
2018-12-24T15:51:49.814Z,9.80
2018-12-24T15:54:38.982Z,7.93
2018-12-24T15:57:20.883Z,5.70
2018-12-24T16:00:10.462Z,5.73
2018-12-24T16:02:59.643Z,6.23
2018-12-24T16:08:49.159Z,7.90
2018-12-24T16:11:38.491Z,7.63
2018-12-24T16:14:27.671Z,8.77
2018-12-24T16:17:16.955Z,11.37
2018-12-24T16:20:26.056Z,7.37
2018-12-24T16:23:28.050Z,7.87
2018-12-24T16:26:17.330Z,10.87
2018-12-24T16:32:02.083Z,11.47
2018-12-24T16:35:01.850Z,9.67
2018-12-24T16:37:51.057Z,14.13
2018-12-24T16:43:48.574Z,9.50
2018-12-24T16:46:37.804Z,8.83
2018-12-24T16:49:26.869Z,8.37
2018-12-24T16:52:17.139Z,10.63
2018-12-24T16:55:25.446Z,21.53
2018-12-24T17:01:29.582Z,18.50
2018-12-24T17:04:11.048Z,10.87
2018-12-24T17:07:00.272Z,11.90
2018-12-24T17:09:42.456Z,14.13
2018-12-24T17:15:19.003Z,15.30
2018-12-24T17:18:08.255Z,11.43
2018-12-24T17:20:57.527Z,12.27
2018-12-24T17:23:46.593Z,11.27
2018-12-24T17:29:31.976Z,13.37
2018-12-24T17:32:13.690Z,10.90
2018-12-24T17:35:02.937Z,12.10
2018-12-24T17:37:44.544Z,11.40
2018-12-24T17:43:26.022Z,12.93
2018-12-24T17:46:15.199Z,12.03
2018-12-24T17:49:04.649Z,13.73
2018-12-24T17:51:53.893Z,13.17
2018-12-24T17:54:35.407Z,13.00
2018-12-24T17:57:24.587Z,17.20
2018-12-24T18:00:13.672Z,15.67
2018-12-24T18:03:03.053Z,14.20
2018-12-24T18:05:52.227Z,15.30
2018-12-24T18:08:41.408Z,15.57
2018-12-24T18:11:30.589Z,16.63
2018-12-24T18:14:19.868Z,16.07
2018-12-24T18:17:01.776Z,14.37
2018-12-24T18:19:43.575Z,15.77
2018-12-24T18:22:32.762Z,15.40
2018-12-24T18:25:21.944Z,15.47
2018-12-24T18:28:11.016Z,15.87
2018-12-24T18:31:00.206Z,16.83
2018-12-24T18:33:49.484Z,19.77
2018-12-24T18:36:38.671Z,18.10
2018-12-24T18:39:27.846Z,21.40
2018-12-24T18:42:17.027Z,16.93
2018-12-24T18:48:14.164Z,15.57
2018-12-24T18:51:03.346Z,15.20
2018-12-24T18:53:52.524Z,15.83
2018-12-24T18:56:41.708Z,18.57
2018-12-24T18:59:30.887Z,17.17
2018-12-24T19:02:20.072Z,14.03
2018-12-24T19:05:28.685Z,11.97
2018-12-24T19:08:17.894Z,11.93
2018-12-24T19:11:07.073Z,12.73
2018-12-24T19:16:47.432Z,13.20
2018-12-24T19:19:29.272Z,17.37
2018-12-24T19:22:18.490Z,22.13
2018-12-24T19:25:00.140Z,18.20
2018-12-24T19:27:49.379Z,19.60
2018-12-24T19:30:31.308Z,19.60
2018-12-24T19:33:20.562Z,23.43
2018-12-24T19:36:02.863Z,21.40
2018-12-24T19:38:52.044Z,22.13
2018-12-24T19:41:33.863Z,20.37
2018-12-24T19:44:23.133Z,28.80
2018-12-24T19:47:04.699Z,22.37
2018-12-24T19:49:53.922Z,23.37
2018-12-24T19:52:43.104Z,21.30
2018-12-24T19:55:23.142Z,21.57
2018-12-24T20:01:18.008Z,19.10
2018-12-24T20:07:06.406Z,20.77
2018-12-24T20:09:46.467Z,18.60
2018-12-24T20:12:35.723Z,18.47
2018-12-24T20:15:17.545Z,18.20
2018-12-24T20:18:06.728Z,21.37
2018-12-24T20:20:48.622Z,22.57
2018-12-24T20:23:38.096Z,19.50
2018-12-24T20:26:20.214Z,18.13
2018-12-24T20:29:09.475Z,18.33
2018-12-24T20:31:51.980Z,16.93
2018-12-24T20:34:41.150Z,19.80
2018-12-24T20:37:22.929Z,20.83
2018-12-24T20:43:12.388Z,20.50
2018-12-24T20:46:01.611Z,20.33
2018-12-24T20:48:52.547Z,22.60
2018-12-24T20:51:34.587Z,17.10
2018-12-24T20:54:23.746Z,16.30
2018-12-24T20:57:05.222Z,17.93
2018-12-24T20:59:54.441Z,19.07
2018-12-24T21:02:36.475Z,18.97
2018-12-24T21:05:25.722Z,21.03
2018-12-24T21:08:07.174Z,18.93
2018-12-24T21:10:56.418Z,20.70
2018-12-24T21:13:36.409Z,21.17
2018-12-24T21:16:25.741Z,18.13
2018-12-24T21:19:07.179Z,18.13
2018-12-24T21:21:49.272Z,17.70
2018-12-24T21:24:57.713Z,19.97
2018-12-24T21:27:46.884Z,23.63
2018-12-24T21:30:36.061Z,24.87
2018-12-24T21:33:25.241Z,31.70
2018-12-24T21:39:29.260Z,33.87
2018-12-24T21:42:11.064Z,37.43
2018-12-24T21:45:00.249Z,38.43
2018-12-24T21:47:42.253Z,36.97
2018-12-24T21:50:31.435Z,35.47
2018-12-24T21:53:13.618Z,31.83
2018-12-24T21:56:02.816Z,34.27
2018-12-24T21:58:44.695Z,29.97
2018-12-24T22:01:33.907Z,26.40
2018-12-24T22:04:23.084Z,29.80
2018-12-24T22:07:31.204Z,33.70
2018-12-24T22:10:14.291Z,31.47
2018-12-24T22:13:03.371Z,29.03
2018-12-24T22:15:52.586Z,37.03
2018-12-24T22:18:41.866Z,36.13
2018-12-24T22:21:49.943Z,34.00
2018-12-24T22:24:31.693Z,30.87
2018-12-24T22:27:20.910Z,32.77
2018-12-24T22:30:10.091Z,45.00
2018-12-24T22:32:59.273Z,57.43
2018-12-24T22:35:48.451Z,40.57
2018-12-24T22:38:37.630Z,40.70
2018-12-24T22:41:26.811Z,44.60
2018-12-24T22:44:15.993Z,71.23
2018-12-24T22:47:05.273Z,43.07
2018-12-24T22:49:54.550Z,43.73
2018-12-24T22:52:34.723Z,33.50
2018-12-24T22:55:23.871Z,44.33
2018-12-24T22:58:05.723Z,50.43
2018-12-24T23:00:55.054Z,55.40
2018-12-24T23:06:38.721Z,75.03
2018-12-24T23:09:20.941Z,59.30
2018-12-24T23:12:10.209Z,76.90
2018-12-24T23:14:51.869Z,65.40
2018-12-24T23:17:41.097Z,50.30
2018-12-24T23:20:23.371Z,56.83
2018-12-24T23:26:14.690Z,59.60
2018-12-24T23:29:03.915Z,81.27
2018-12-24T23:31:46.137Z,71.07
2018-12-24T23:34:35.394Z,67.53
2018-12-24T23:37:17.634Z,48.17
2018-12-24T23:43:13.420Z,41.90
2018-12-24T23:46:02.635Z,49.77
2018-12-24T23:48:57.700Z,59.30
2018-12-24T23:51:35.253Z,51.67
2018-12-24T23:54:24.475Z,62.23
2018-12-24T23:57:13.655Z,78.50
